Marlboro, VT (05344)

1:41 PM EST on November 26, 2014 (GMT -0500)
Wastewater Treatment Plant | Change Station
CLOSE
Current Station
Personal Weather Station
Location: Wilmington, VT
Elevation: 1500 ft
Nearby Weather Stations

Elev 1500 ft 42.87 °N, 72.88 °W | Updated 1 minute ago

Snow
Snow
30.8 °F
Feels Like 31 °F
N
0.0
Wind Variable Wind from East
Gusts 0.0 mph

Today
High -- | Low -- °F
--% Chance of Precip.
Yesterday
High -- | Low -- °F
Precip. -- in
6:56 AM 4:19 PM
Waxing Crescent, 21% visible
Pressure 30.09 in
Visibility 0.5 miles
Clouds Overcast 600 ft
Windchill 31 °F
Dew Point 30 °F
Humidity 95%
Rainfall 0.29 in
Snow Depth Not available.
UV 0 out of 12
Pollen .10 out of 12
Air Quality Not available.
Flu Activity Not available.
METAR KEEN 261835Z AUTO 34005KT 1/2SM OVC006 01/M01 A3009 RMK AO1

More Conditions Fewer Conditions

Pressure 30.09 in
Visibility 0.5 miles
Clouds Overcast 600 ft
Windchill 31 °F
Dew Point 30 °F
Humidity 95%
Rainfall 0.29 in
Snow Depth Not available.
UV 0 out of 12
Pollen .10 out of 12
Air Quality Not available.
Flu Activity Not available.
METAR KEEN 261835Z AUTO 34005KT 1/2SM OVC006 01/M01 A3009 RMK AO1

More Conditions Fewer Conditions

10-Day Weather Forecast

Almanac

Astronomy

Nov. 26, 2014 Rise Set
Actual Time
Civil Twilight
Nautical Twilight
Astronomical Twilight
Moon
Length of Visible Light
Length of Day
Tomorrow will be .
, % of the Moon is Illuminated

Today's Extremes

State Highs State Lows

Community

WunderPhotos

Upload Photos

1,773,827 photos uploaded!

WunderBlogs® & News

Nearby

Air Quality

  Air Quality AQ Index Pollutant
Not available.

Snow Depth

Station Depth Elevation

Earthquake Activity

City Distance Mag. Time & Date
Minimum magnitude displayed is 2.5.

Coastal Water Temperatures

Place Temperature

Nearby Weather Stations